Time;durP1;ratioP1;P1;durP2;ratioP2;P2;SDS_P1;SDS_P2;PMS_P1;PMS_P2;Temp;Humidity;BMP_temperature;BMP_pressure;BME280_temperature;BME280_humidity;BME280_pressure;Samples;Min_cycle;Max_cycle;Signal;HPM_P1;HPM_P2
2023/10/23 00:04:29;;;;;;;7.33;4.93;;;10.90;99.90;;;;;;10315667;28;20208;-78
2023/10/23 00:09:51;;;;;;;6.63;4.77;;;10.80;99.90;;;;;;10319896;28;20225;-77
2023/10/23 00:15:13;;;;;;;5.40;3.87;;;10.80;99.90;;;;;;10315007;28;20198;-76
2023/10/23 00:20:34;;;;;;;6.70;4.20;;;10.80;99.90;;;;;;10288917;28;20231;-76
2023/10/23 00:25:55;;;;;;;6.23;3.50;;;10.80;99.90;;;;;;10294778;28;20515;-76
2023/10/23 00:31:16;;;;;;;10.93;4.00;;;10.90;99.90;;;;;;10314894;28;20194;-76
2023/10/23 00:36:37;;;;;;;6.20;3.83;;;10.80;99.90;;;;;;10314810;28;20209;-76
2023/10/23 00:41:58;;;;;;;6.67;3.80;;;10.80;99.90;;;;;;10287377;28;20196;-76
2023/10/23 00:47:21;;;;;;;6.40;3.60;;;10.80;99.90;;;;;;10273185;28;20249;-76
2023/10/23 00:52:43;;;;;;;6.27;3.33;;;10.70;99.90;;;;;;10287271;28;20271;-76
2023/10/23 00:58:04;;;;;;;5.00;3.23;;;10.70;99.90;;;;;;10287819;28;20202;-76
2023/10/23 01:03:26;;;;;;;3.47;2.87;;;10.70;99.90;;;;;;10286786;28;20192;-76
2023/10/23 01:08:47;;;;;;;2.97;2.67;;;10.70;99.90;;;;;;10296140;28;20219;-76
2023/10/23 01:14:09;;;;;;;4.43;2.57;;;10.70;99.90;;;;;;10312137;28;20183;-76
2023/10/23 01:19:30;;;;;;;6.73;3.47;;;10.70;99.90;;;;;;10306539;28;20505;-76
2023/10/23 01:24:52;;;;;;;4.50;3.00;;;10.70;99.90;;;;;;10300333;28;20234;-76
2023/10/23 01:30:13;;;;;;;4.37;2.93;;;10.70;99.90;;;;;;10325955;28;20386;-76
2023/10/23 01:35:35;;;;;;;4.43;2.83;;;10.70;99.90;;;;;;10326763;28;20233;-76
2023/10/23 01:40:56;;;;;;;2.90;2.60;;;10.60;99.90;;;;;;10325404;28;20236;-75
2023/10/23 01:46:19;;;;;;;4.23;2.57;;;10.60;99.90;;;;;;10324398;28;20230;-77
2023/10/23 01:51:40;;;;;;;3.80;2.80;;;10.60;99.90;;;;;;10325633;28;20201;-77
2023/10/23 01:57:02;;;;;;;5.20;2.60;;;10.60;99.90;;;;;;10325334;28;20388;-76
2023/10/23 02:02:23;;;;;;;3.30;2.53;;;10.60;99.90;;;;;;10321266;28;20200;-76
2023/10/23 02:07:45;;;;;;;4.03;2.53;;;10.60;99.90;;;;;;10319081;28;20268;-76
2023/10/23 02:13:06;;;;;;;6.23;2.27;;;10.60;99.90;;;;;;10294736;28;20191;-76
2023/10/23 02:18:27;;;;;;;4.33;2.20;;;10.50;99.90;;;;;;10277209;28;20249;-76
2023/10/23 02:23:49;;;;;;;3.77;2.60;;;10.60;99.90;;;;;;10318790;28;20198;-76
2023/10/23 02:29:16;;;;;;;4.27;2.87;;;10.50;99.90;;;;;;10317995;28;20233;-76
2023/10/23 02:34:37;;;;;;;4.33;3.00;;;10.50;99.90;;;;;;10319448;28;20356;-76
2023/10/23 02:40:01;;;;;;;9.17;3.63;;;10.50;99.90;;;;;;10317876;28;20240;-76
2023/10/23 02:45:22;;;;;;;5.77;3.83;;;10.50;99.90;;;;;;10318031;28;20229;-77
2023/10/23 02:50:57;;;;;;;4.90;3.13;;;10.30;99.90;;;;;;10317684;28;20242;-77
2023/10/23 02:56:18;;;;;;;13.60;6.07;;;10.20;99.90;;;;;;10318162;28;20200;-77
2023/10/23 03:01:39;;;;;;;11.73;6.93;;;10.10;99.90;;;;;;10317098;28;20200;-76
2023/10/23 03:07:01;;;;;;;11.20;7.07;;;10.00;99.90;;;;;;10316904;28;20226;-76
2023/10/23 03:12:22;;;;;;;7.10;5.13;;;9.90;99.90;;;;;;10317222;28;20371;-77
2023/10/23 03:17:44;;;;;;;7.00;4.70;;;9.80;99.90;;;;;;10313355;28;20222;-77
2023/10/23 03:23:06;;;;;;;7.87;4.90;;;9.70;99.90;;;;;;10316510;28;20201;-77
2023/10/23 03:28:27;;;;;;;7.13;5.67;;;9.60;99.90;;;;;;10316427;28;20224;-77
2023/10/23 03:33:49;;;;;;;10.93;5.90;;;9.50;99.90;;;;;;10316273;28;20186;-78
2023/10/23 03:39:10;;;;;;;7.87;5.30;;;9.40;99.90;;;;;;10315076;28;20324;-76
2023/10/23 03:44:31;;;;;;;7.10;4.60;;;9.40;99.90;;;;;;10315749;28;20201;-76
2023/10/23 03:49:53;;;;;;;8.00;5.13;;;9.30;99.90;;;;;;10315199;28;20218;-76
2023/10/23 03:55:14;;;;;;;5.07;4.27;;;9.40;99.90;;;;;;10311647;28;20197;-76
2023/10/23 04:00:35;;;;;;;4.50;3.77;;;9.40;99.90;;;;;;10314962;28;20195;-77
2023/10/23 04:05:57;;;;;;;5.70;4.13;;;9.30;99.90;;;;;;10314360;28;20555;-77
2023/10/23 04:11:18;;;;;;;5.03;3.60;;;9.30;99.90;;;;;;10315306;28;20202;-77
2023/10/23 04:16:40;;;;;;;5.20;3.97;;;9.30;99.90;;;;;;10303453;28;20375;-76
2023/10/23 04:22:01;;;;;;;5.03;3.83;;;9.30;99.90;;;;;;10282945;28;20388;-76
2023/10/23 04:27:22;;;;;;;10.50;6.63;;;9.20;99.90;;;;;;10314518;28;20224;-77
2023/10/23 04:32:43;;;;;;;10.53;7.70;;;9.20;99.90;;;;;;10314915;28;20193;-75
2023/10/23 04:38:05;;;;;;;8.07;5.97;;;9.10;99.90;;;;;;10313069;28;20535;-75
2023/10/23 04:43:27;;;;;;;8.47;5.53;;;9.00;99.90;;;;;;10313742;28;20211;-76
2023/10/23 04:48:48;;;;;;;7.03;5.33;;;9.00;99.90;;;;;;10313527;28;20225;-76
2023/10/23 04:54:09;;;;;;;7.87;6.23;;;9.00;99.90;;;;;;10312926;28;20197;-75
2023/10/23 04:59:34;;;;;;;7.50;6.17;;;9.00;99.90;;;;;;10314099;28;20234;-77
2023/10/23 05:04:55;;;;;;;8.47;5.77;;;9.00;99.90;;;;;;10313860;28;20560;-78
2023/10/23 05:10:17;;;;;;;7.20;5.57;;;8.90;99.90;;;;;;10313789;28;20373;-77
2023/10/23 05:15:38;;;;;;;6.67;5.10;;;8.90;99.90;;;;;;10312296;28;20277;-77
2023/10/23 05:21:11;;;;;;;6.47;4.63;;;8.90;99.90;;;;;;10313661;28;20447;-77
2023/10/23 05:26:32;;;;;;;6.23;5.20;;;8.90;99.90;;;;;;10313619;28;20236;-78
2023/10/23 05:31:53;;;;;;;8.10;6.77;;;8.80;99.90;;;;;;10312560;28;20200;-78
2023/10/23 05:37:15;;;;;;;11.57;7.00;;;8.80;99.90;;;;;;10300926;28;20245;-78
2023/10/23 05:42:36;;;;;;;8.43;6.20;;;8.80;99.90;;;;;;10320080;28;20227;-78
2023/10/23 05:47:57;;;;;;;8.23;6.13;;;8.80;99.90;;;;;;10320576;28;20225;-79
2023/10/23 05:53:18;;;;;;;8.30;6.07;;;8.90;99.90;;;;;;10320000;28;20419;-78
2023/10/23 05:58:40;;;;;;;9.40;6.00;;;8.90;99.90;;;;;;10305481;28;20196;-76
2023/10/23 06:04:01;;;;;;;12.00;6.60;;;8.90;99.90;;;;;;10319019;28;20208;-76
2023/10/23 06:09:22;;;;;;;10.77;6.43;;;8.90;99.90;;;;;;10319909;28;20388;-78
2023/10/23 06:14:44;;;;;;;7.93;5.93;;;8.90;99.90;;;;;;10318124;28;20200;-79
2023/10/23 06:20:06;;;;;;;11.47;6.90;;;8.90;99.90;;;;;;10284772;28;20206;-77
2023/10/23 06:25:29;;;;;;;19.80;11.37;;;8.90;99.90;;;;;;10292722;28;20288;-78
2023/10/23 06:30:50;;;;;;;22.03;12.37;;;9.00;99.90;;;;;;10302786;28;20199;-78
2023/10/23 06:36:11;;;;;;;16.73;9.80;;;9.60;99.90;;;;;;10318667;28;20245;-78
2023/10/23 06:41:32;;;;;;;13.67;7.23;;;9.90;99.90;;;;;;10318640;28;20304;-78
2023/10/23 06:46:55;;;;;;;9.33;6.23;;;10.80;99.90;;;;;;10316747;28;20276;-78
2023/10/23 06:52:16;;;;;;;11.68;7.53;;;11.90;99.90;;;;;;10318535;28;20196;-79
2023/10/23 07:03:36;;;;;;;9.90;6.30;;;12.00;91.30;;;;;;10081368;24;20246;-77
2023/10/23 07:08:59;;;;;;;13.60;9.10;;;11.40;99.90;;;;;;9827089;30;20316;-78
2023/10/23 07:14:20;;;;;;;22.60;13.77;;;10.90;1.00;;;;;;9815189;30;20205;-78
2023/10/23 07:19:42;;;;;;;17.07;10.83;;;10.70;99.90;;;;;;9790824;30;20434;-78
2023/10/23 07:25:04;;;;;;;9.23;7.17;;;10.50;14.10;;;;;;9805910;30;20216;-77
2023/10/23 07:30:25;;;;;;;9.43;6.20;;;10.50;99.90;;;;;;9800875;30;20226;-77
2023/10/23 07:35:47;;;;;;;6.67;5.80;;;10.40;1.00;;;;;;9815393;30;20216;-77
2023/10/23 07:41:13;;;;;;;9.10;6.07;;;10.40;1.00;;;;;;9814313;30;20226;-79
2023/10/23 07:46:34;;;;;;;11.70;7.20;;;10.30;1.00;;;;;;9828466;30;20261;-81
2023/10/23 07:51:56;;;;;;;9.37;6.27;;;10.40;1.00;;;;;;9796068;30;20212;-80
2023/10/23 07:57:17;;;;;;;9.50;6.33;;;10.40;1.00;;;;;;9813342;30;20267;-77
2023/10/23 08:02:38;;;;;;;8.67;5.10;;;10.50;1.00;;;;;;9815545;30;20251;-78
2023/10/23 08:08:00;;;;;;;24.83;14.10;;;11.20;1.00;;;;;;9812391;30;20539;-78
2023/10/23 08:13:21;;;;;;;8.50;5.17;;;11.40;1.00;;;;;;9811823;30;20423;-78
2023/10/23 08:18:42;;;;;;;4.80;3.83;;;11.90;1.00;;;;;;9816953;30;20312;-77
2023/10/23 08:24:04;;;;;;;4.28;3.20;;;12.10;99.90;;;;;;9817958;30;20216;-77
2023/10/23 08:29:26;;;;;;;6.18;2.88;;;;;;;;;;9811758;30;20246;-77
2023/10/23 08:34:52;;;;;;;2.63;2.22;;;15.80;99.90;;;;;;9816318;30;20200;-78
2023/10/23 08:40:13;;;;;;;3.65;2.78;;;16.90;99.90;;;;;;9826085;30;20211;-78
2023/10/23 08:45:34;;;;;;;6.68;3.15;;;16.10;23.50;;;;;;9800595;30;20218;-77
2023/10/23 08:50:58;;;;;;;3.72;2.80;;;15.10;28.50;;;;;;9813205;30;20368;-77
2023/10/23 08:56:21;;;;;;;5.57;3.00;;;14.30;99.90;;;;;;9823817;30;20213;-77
2023/10/23 09:01:42;;;;;;;4.50;2.97;;;13.80;99.90;;;;;;9784649;30;20245;-78
2023/10/23 09:07:04;;;;;;;4.53;2.88;;;13.40;99.90;;;;;;9803371;30;20519;-76
2023/10/23 09:12:32;;;;;;;5.37;3.03;;;13.20;1.00;;;;;;9847914;30;20210;-78
2023/10/23 09:17:53;;;;;;;6.15;3.22;;;13.00;1.00;;;;;;9818857;30;20217;-77
2023/10/23 09:23:15;;;;;;;4.17;2.50;;;12.80;1.00;;;;;;9791832;30;20519;-76
2023/10/23 09:28:36;;;;;;;5.33;2.37;;;12.70;1.00;;;;;;9814231;30;20236;-79
2023/10/23 09:33:57;;;;;;;6.90;3.53;;;12.70;1.00;;;;;;9809803;30;20406;-77
2023/10/23 09:39:23;;;;;;;7.83;2.50;;;12.60;1.00;;;;;;9795614;30;20218;-78
2023/10/23 09:44:49;;;;;;;3.23;1.77;;;12.70;1.00;;;;;;9836726;30;20205;-76
2023/10/23 09:50:11;;;;;;;3.10;1.80;;;12.80;1.00;;;;;;9833573;30;20470;-81
2023/10/23 09:55:34;;;;;;;5.47;1.87;;;12.80;99.90;;;;;;9822745;30;20490;-77
2023/10/23 10:00:58;;;;;;;4.07;2.00;;;12.90;99.90;;;;;;9815981;30;20310;-78
2023/10/23 10:06:24;;;;;;;3.60;1.83;;;12.80;99.90;;;;;;9815126;30;20230;-78
2023/10/23 10:11:45;;;;;;;4.00;1.47;;;13.00;99.90;;;;;;9804011;30;20217;-82
2023/10/23 10:17:09;;;;;;;4.17;1.67;;;13.20;99.90;;;;;;9802256;30;20212;-81
2023/10/23 10:22:33;;;;;;;4.33;2.00;;;13.30;99.90;;;;;;9794849;30;20243;-79
2023/10/23 10:28:02;;;;;;;12.57;5.67;;;13.30;81.80;;;;;;9782545;30;20269;-78
2023/10/23 10:33:29;;;;;;;4.55;1.98;;;13.30;58.30;;;;;;9789014;30;20202;-79
2023/10/23 10:38:50;;;;;;;3.93;1.67;;;13.40;63.60;;;;;;9802864;30;20257;-80
2023/10/23 10:44:11;;;;;;;8.80;2.20;;;13.50;54.20;;;;;;9815728;30;20205;-80
2023/10/23 10:49:33;;;;;;;2.70;1.50;;;13.80;1.00;;;;;;9767325;30;20244;-78
2023/10/23 10:54:55;;;;;;;2.20;1.30;;;14.10;1.00;;;;;;9813366;30;20233;-79
2023/10/23 11:00:18;;;;;;;4.88;1.60;;;14.60;1.00;;;;;;9815351;30;20244;-81
2023/10/23 11:05:44;;;;;;;4.30;1.42;;;15.90;1.00;;;;;;9815285;30;20489;-78
2023/10/23 11:11:06;;;;;;;7.13;1.60;;;17.40;1.00;;;;;;9808993;30;20225;-78
2023/10/23 11:16:27;;;;;;;5.32;1.40;;;16.70;1.00;;;;;;9814525;30;20408;-79
2023/10/23 11:21:48;;;;;;;8.90;5.93;;;17.00;1.00;;;;;;9814912;30;20211;-79
2023/10/23 11:27:10;;;;;;;1.80;1.10;;;17.90;1.00;;;;;;9801641;30;20249;-77
2023/10/23 11:32:32;;;;;;;2.75;1.35;;;17.40;1.00;;;;;;9814182;30;20208;-78
2023/10/23 11:37:55;;;;;;;3.90;1.10;;;18.90;1.00;;;;;;9814679;30;20203;-78
2023/10/23 11:43:17;;;;;;;3.00;1.58;;;19.30;1.00;;;;;;9814241;30;20286;-79
2023/10/23 11:48:39;;;;;;;3.28;1.20;;;;;;;;;;9814169;30;20275;-82
2023/10/23 11:54:03;;;;;;;2.72;0.80;;;;;;;;;;9791896;30;20290;-78
2023/10/23 11:59:25;;;;;;;1.35;0.85;;;;;;;;;;9814040;30;20222;-77
2023/10/23 12:04:47;;;;;;;3.00;1.08;;;;;;;;;;9782294;30;20210;-77
2023/10/23 12:10:10;;;;;;;2.95;0.90;;;22.60;1.00;;;;;;9806202;30;20235;-77
2023/10/23 12:15:31;;;;;;;5.38;0.85;;;23.30;1.00;;;;;;9812446;30;20203;-77
2023/10/23 12:20:52;;;;;;;9.60;1.17;;;23.70;1.00;;;;;;9825294;30;20342;-76
2023/10/23 12:26:15;;;;;;;3.42;1.08;;;21.70;1.00;;;;;;9815063;30;20326;-76
2023/10/23 12:31:37;;;;;;;2.50;0.95;;;19.30;1.00;;;;;;9813118;30;20219;-75
2023/10/23 12:36:58;;;;;;;3.72;1.08;;;17.50;1.00;;;;;;9812954;30;20278;-78
2023/10/23 12:42:20;;;;;;;1.90;0.85;;;17.60;1.00;;;;;;9813415;30;20282;-79
2023/10/23 12:47:41;;;;;;;1.65;0.90;;;18.20;1.00;;;;;;9811735;30;20265;-79
2023/10/23 12:53:05;;;;;;;2.45;0.88;;;19.50;1.00;;;;;;9799269;30;20211;-80
2023/10/23 12:58:27;;;;;;;5.03;0.88;;;19.40;1.00;;;;;;9824354;30;20263;-78
2023/10/23 13:03:48;;;;;;;2.15;1.10;;;;;;;;;;9798834;30;20854;-81
2023/10/23 13:09:36;;;;;;;3.63;1.58;;;;;;;;;;9811832;30;20242;-89
2023/10/23 13:14:57;;;;;;;3.97;1.35;;;;;;;;;;9811076;30;20333;-79
2023/10/23 13:20:19;;;;;;;4.93;1.30;;;14.90;1.00;;;;;;9805775;30;20220;-78
2023/10/23 13:25:41;;;;;;;1.98;0.95;;;14.50;1.00;;;;;;9791940;30;20584;-78
2023/10/23 13:31:02;;;;;;;6.28;1.00;;;14.30;1.00;;;;;;9811301;30;20237;-81
2023/10/23 13:36:23;;;;;;;7.55;4.00;;;14.10;1.00;;;;;;9818876;30;20371;-81
2023/10/23 13:41:45;;;;;;;4.80;2.28;;;13.90;1.00;;;;;;9834931;30;20258;-79
2023/10/23 13:47:07;;;;;;;7.63;2.13;;;13.80;1.00;;;;;;9835445;30;20325;-76
2023/10/23 13:52:28;;;;;;;2.72;1.58;;;13.70;1.00;;;;;;9826171;30;20210;-81
2023/10/23 13:57:50;;;;;;;2.43;1.40;;;13.70;1.00;;;;;;9830185;30;20214;-74
2023/10/23 14:03:16;;;;;;;3.00;1.53;;;13.80;1.00;;;;;;9826183;30;20257;-77
2023/10/23 14:08:37;;;;;;;5.23;2.20;;;13.70;1.00;;;;;;9827294;30;20230;-81
2023/10/23 14:13:59;;;;;;;3.87;2.10;;;13.70;1.00;;;;;;9797323;30;20236;-78
2023/10/23 14:19:21;;;;;;;4.70;1.80;;;13.70;1.00;;;;;;9807584;30;20225;-77
2023/10/23 14:24:50;;;;;;;4.30;1.63;;;13.70;1.00;;;;;;9838341;30;20211;-79
2023/10/23 14:30:11;;;;;;;1.70;1.23;;;13.50;1.00;;;;;;9829339;30;20230;-78
2023/10/23 14:35:35;;;;;;;7.20;1.93;;;13.50;1.00;;;;;;9832674;30;20217;-76
2023/10/23 14:41:01;;;;;;;7.95;2.00;;;13.30;1.00;;;;;;9833919;30;20568;-76
2023/10/23 14:46:23;;;;;;;2.73;1.20;;;13.20;1.00;;;;;;9816018;30;20222;-75
2023/10/23 14:51:45;;;;;;;3.97;1.70;;;13.00;1.00;;;;;;9815789;30;20218;-78
2023/10/23 14:57:07;;;;;;;9.00;4.67;;;12.70;99.90;;;;;;9827281;30;20220;-77
2023/10/23 15:02:28;;;;;;;4.40;1.83;;;12.80;1.00;;;;;;9832037;30;20250;-78
2023/10/23 15:07:50;;;;;;;3.20;1.13;;;12.70;1.00;;;;;;9818068;30;20438;-77
2023/10/23 15:13:12;;;;;;;2.60;1.43;;;12.70;1.00;;;;;;9820006;30;20202;-75
2023/10/23 15:18:34;;;;;;;2.40;1.67;;;12.50;1.00;;;;;;9817091;30;20202;-77
2023/10/23 15:23:55;;;;;;;3.17;1.70;;;12.20;1.00;;;;;;9817588;30;20299;-79
2023/10/23 15:29:16;;;;;;;3.03;1.60;;;12.20;1.00;;;;;;9817705;30;20228;-76
2023/10/23 15:34:38;;;;;;;5.20;1.87;;;12.10;99.90;;;;;;9826312;30;20395;-79
2023/10/23 15:39:59;;;;;;;3.77;1.93;;;11.80;4.00;;;;;;9821309;30;20202;-77
2023/10/23 15:45:20;;;;;;;4.80;2.50;;;11.60;34.20;;;;;;9819333;30;20205;-78
2023/10/23 15:50:41;;;;;;;10.27;3.70;;;11.40;99.90;;;;;;9818685;30;20425;-78
2023/10/23 15:56:03;;;;;;;9.80;4.03;;;11.30;99.90;;;;;;9818021;30;20213;-77
2023/10/23 16:01:25;;;;;;;8.83;5.23;;;11.20;1.00;;;;;;9818251;30;20240;-77
2023/10/23 16:06:47;;;;;;;11.00;5.00;;;11.00;1.00;;;;;;9818972;30;20230;-78
2023/10/23 16:12:08;;;;;;;19.47;7.80;;;10.80;1.00;;;;;;9817721;30;20214;-77
2023/10/23 16:17:30;;;;;;;31.00;12.40;;;10.50;1.00;;;;;;9818849;30;20201;-77
2023/10/23 16:22:51;;;;;;;31.20;15.13;;;10.20;1.00;;;;;;9817916;30;20207;-76
2023/10/23 16:28:12;;;;;;;33.70;16.23;;;10.10;1.00;;;;;;9817519;30;20236;-80
2023/10/23 16:33:34;;;;;;;38.67;18.23;;;10.10;99.90;;;;;;9818408;30;20288;-78
2023/10/23 16:38:55;;;;;;;34.20;17.13;;;9.90;1.00;;;;;;9817346;30;20228;-78
2023/10/23 16:44:16;;;;;;;32.67;17.97;;;9.80;1.00;;;;;;9816766;30;20386;-76
2023/10/23 16:49:37;;;;;;;39.57;20.67;;;9.70;1.00;;;;;;9817165;30;20545;-76
2023/10/23 16:54:58;;;;;;;37.80;20.13;;;9.60;1.00;;;;;;9817768;30;20202;-78
2023/10/23 17:00:20;;;;;;;45.33;22.27;;;9.50;1.00;;;;;;9816369;30;20246;-77
2023/10/23 17:05:41;;;;;;;41.10;21.40;;;9.40;1.00;;;;;;9816711;30;20210;-78
2023/10/23 17:11:07;;;;;;;44.27;23.60;;;9.20;99.90;;;;;;9786703;30;20234;-77
2023/10/23 17:16:30;;;;;;;56.37;28.43;;;9.10;99.90;;;;;;9781436;30;20418;-76
2023/10/23 17:21:51;;;;;;;89.83;41.43;;;9.00;1.00;;;;;;9790903;30;20202;-76
2023/10/23 17:27:12;;;;;;;91.70;47.07;;;8.90;1.00;;;;;;9816289;30;20249;-77
2023/10/23 17:32:34;;;;;;;100.43;49.03;;;8.60;1.00;;;;;;9820029;30;20560;-76
2023/10/23 17:37:56;;;;;;;102.73;53.87;;;8.60;1.00;;;;;;9823868;30;20226;-76
2023/10/23 17:43:19;;;;;;;117.53;58.47;;;8.40;1.00;;;;;;9824107;30;20233;-78
2023/10/23 17:48:40;;;;;;;114.20;63.97;;;8.30;1.00;;;;;;9823617;30;20293;-79
2023/10/23 17:54:02;;;;;;;154.03;76.30;;;8.20;1.00;;;;;;9822667;30;20316;-79
2023/10/23 17:59:25;;;;;;;162.00;78.27;;;8.00;1.00;;;;;;9823180;30;20224;-78
2023/10/23 18:04:47;;;;;;;148.33;79.50;;;8.00;99.90;;;;;;9823162;30;20338;-78
2023/10/23 18:10:08;;;;;;;135.07;77.67;;;8.00;1.00;;;;;;9810594;30;20245;-79
2023/10/23 18:15:29;;;;;;;147.13;83.10;;;8.00;1.00;;;;;;9823138;30;20273;-78
2023/10/23 18:20:54;;;;;;;137.87;79.80;;;7.90;99.90;;;;;;9821465;30;20511;-75
2023/10/23 18:26:15;;;;;;;146.60;83.73;;;7.80;68.10;;;;;;9822847;30;20200;-79
2023/10/23 18:31:37;;;;;;;136.40;76.93;;;7.90;1.00;;;;;;9822807;30;20233;-79
2023/10/23 18:36:59;;;;;;;137.97;79.53;;;7.80;99.90;;;;;;9821815;30;20284;-80
2023/10/23 18:42:22;;;;;;;159.07;87.83;;;7.70;1.00;;;;;;9820755;30;20206;-79
2023/10/23 18:47:43;;;;;;;156.03;83.13;;;7.60;1.00;;;;;;9821794;30;20586;-78
2023/10/23 18:53:05;;;;;;;162.33;86.73;;;7.60;1.00;;;;;;9820676;30;20491;-78
2023/10/23 18:58:26;;;;;;;159.17;87.70;;;7.50;1.00;;;;;;9821636;30;20385;-78
2023/10/23 19:03:47;;;;;;;171.00;86.73;;;7.60;1.00;;;;;;9819750;30;20550;-80
2023/10/23 19:09:08;;;;;;;181.67;90.37;;;7.50;99.90;;;;;;9807800;30;20247;-78
2023/10/23 19:14:29;;;;;;;173.83;88.13;;;7.40;99.90;;;;;;9821278;30;20201;-76
2023/10/23 19:19:51;;;;;;;176.73;87.53;;;7.30;99.90;;;;;;9828682;30;20214;-78
2023/10/23 19:25:12;;;;;;;173.17;88.17;;;7.30;1.00;;;;;;9819913;30;20216;-79
2023/10/23 19:30:33;;;;;;;169.20;83.70;;;7.20;1.00;;;;;;9820700;30;20229;-79
2023/10/23 19:35:54;;;;;;;158.43;79.57;;;7.10;1.00;;;;;;9820191;30;20210;-78
2023/10/23 19:41:27;;;;;;;158.60;81.27;;;7.10;1.00;;;;;;9820027;30;20232;-78
2023/10/23 19:46:48;;;;;;;166.10;81.67;;;7.00;99.90;;;;;;9806604;30;20216;-80
2023/10/23 19:52:12;;;;;;;172.87;87.33;;;6.90;1.00;;;;;;9819653;30;20262;-80
2023/10/23 19:57:34;;;;;;;174.43;85.50;;;6.90;1.00;;;;;;9818772;30;20214;-74
2023/10/23 20:02:55;;;;;;;192.07;96.67;;;6.70;69.10;;;;;;9818877;30;20244;-80
2023/10/23 20:08:16;;;;;;;189.10;91.47;;;6.80;1.00;;;;;;9818923;30;20237;-77
2023/10/23 20:13:37;;;;;;;158.47;80.03;;;6.70;1.00;;;;;;9818451;30;20205;-79
2023/10/23 20:18:58;;;;;;;161.37;81.23;;;6.70;1.00;;;;;;9818751;30;20204;-81
2023/10/23 20:24:19;;;;;;;151.50;79.10;;;6.70;9.10;;;;;;9783055;30;20241;-78
2023/10/23 20:29:40;;;;;;;166.83;80.63;;;6.70;1.00;;;;;;9781763;30;20240;-79
2023/10/23 20:35:04;;;;;;;156.50;78.57;;;6.60;1.00;;;;;;9789666;30;20199;-77
2023/10/23 20:40:25;;;;;;;169.13;82.50;;;6.60;1.00;;;;;;9805545;30;20222;-79
2023/10/23 20:45:47;;;;;;;178.83;87.37;;;;;;;;;;9804810;30;20242;-77
2023/10/23 20:51:10;;;;;;;190.83;87.27;;;6.60;1.00;;;;;;9817159;30;20311;-78
2023/10/23 20:56:32;;;;;;;181.40;90.57;;;6.60;1.00;;;;;;9817256;30;20231;-76
2023/10/23 21:01:53;;;;;;;202.30;98.50;;;;;;;;;;9817516;30;20557;-78
2023/10/23 21:07:16;;;;;;;202.50;94.40;;;6.90;86.70;;;;;;9820220;30;20229;-77
2023/10/23 21:12:37;;;;;;;184.57;85.87;;;6.40;1.00;;;;;;9825653;30;20204;-78
2023/10/23 21:17:58;;;;;;;203.53;88.30;;;6.30;77.80;;;;;;9825107;30;20489;-76
2023/10/23 21:23:19;;;;;;;198.70;92.87;;;6.20;1.00;;;;;;9788942;30;20249;-79
2023/10/23 21:28:46;;;;;;;191.57;89.03;;;6.20;1.00;;;;;;9800051;30;20229;-77
2023/10/23 21:34:07;;;;;;;170.20;81.83;;;6.20;99.90;;;;;;9796323;30;20206;-78
2023/10/23 21:39:28;;;;;;;151.60;77.13;;;6.20;99.90;;;;;;9823776;30;20257;-77
2023/10/23 21:44:51;;;;;;;157.30;75.60;;;6.20;99.90;;;;;;9824040;30;20197;-78
2023/10/23 21:50:12;;;;;;;162.73;77.33;;;6.10;1.00;;;;;;9822926;30;20231;-76
2023/10/23 21:55:34;;;;;;;167.23;82.53;;;6.10;1.00;;;;;;9823286;30;20203;-76
2023/10/23 22:00:55;;;;;;;147.67;74.63;;;6.10;1.00;;;;;;9823166;30;20264;-78
2023/10/23 22:06:18;;;;;;;149.53;71.63;;;6.00;1.00;;;;;;9823764;30;20207;-77
2023/10/23 22:11:39;;;;;;;137.27;68.97;;;5.90;1.00;;;;;;9823528;30;20404;-77
2023/10/23 22:17:00;;;;;;;135.37;65.60;;;5.90;99.90;;;;;;9822076;30;20202;-77
2023/10/23 22:22:22;;;;;;;133.23;66.63;;;5.80;91.00;;;;;;9823042;30;20531;-77
2023/10/23 22:27:42;;;;;;;133.77;64.60;;;5.80;13.50;;;;;;9822853;30;20403;-79
2023/10/23 22:33:06;;;;;;;139.00;71.07;;;5.80;99.90;;;;;;9822876;30;20451;-79
2023/10/23 22:38:33;;;;;;;138.00;69.00;;;5.70;1.00;;;;;;9797849;30;20214;-77
2023/10/23 22:43:55;;;;;;;142.63;69.93;;;5.70;1.00;;;;;;9796750;30;20212;-77
2023/10/23 22:49:16;;;;;;;125.80;65.00;;;5.80;99.90;;;;;;9773008;30;20437;-79
2023/10/23 22:54:38;;;;;;;124.20;66.10;;;5.90;1.00;;;;;;9799469;30;20404;-79
2023/10/23 23:00:00;;;;;;;119.83;57.93;;;5.70;99.90;;;;;;9817138;30;20557;-78
2023/10/23 23:05:21;;;;;;;121.37;60.77;;;5.70;1.00;;;;;;9820640;30;20250;-77
2023/10/23 23:10:45;;;;;;;129.47;68.73;;;5.70;1.00;;;;;;9796567;30;20243;-78
2023/10/23 23:16:06;;;;;;;117.97;60.03;;;5.60;1.00;;;;;;9810320;30;20279;-78
2023/10/23 23:21:36;;;;;;;117.37;59.23;;;5.60;99.90;;;;;;9821142;30;20388;-78
2023/10/23 23:26:57;;;;;;;111.77;56.73;;;5.50;39.70;;;;;;9820775;30;20275;-79
2023/10/23 23:32:18;;;;;;;113.00;57.90;;;5.60;1.00;;;;;;9820553;30;20410;-78
2023/10/23 23:37:39;;;;;;;112.23;57.27;;;5.60;1.00;;;;;;9819977;30;20213;-78
2023/10/23 23:43:00;;;;;;;100.87;51.23;;;5.50;1.00;;;;;;9820020;30;20452;-80
2023/10/23 23:48:21;;;;;;;89.67;45.27;;;5.50;1.00;;;;;;9820100;30;20245;-79
2023/10/23 23:53:43;;;;;;;108.90;54.97;;;5.50;1.00;;;;;;9819389;30;20490;-78
2023/10/23 23:59:04;;;;;;;117.50;57.13;;;5.40;1.00;;;;;;9809326;30;20223;-77
